Time;durP1;ratioP1;P1;durP2;ratioP2;P2;SDS_P1;SDS_P2;PMS_P1;PMS_P2;Temp;Humidity;BMP_temperature;BMP_pressure;BME280_temperature;BME280_humidity;BME280_pressure;Samples;Min_cycle;Max_cycle;Signal;HPM_P1;HPM_P2
2023/08/10 00:01:56;;;;;;;1.17;1.10;;;19.30;77.30;18.40;96818.00;;;;5050175;28;20203;-77
2023/08/10 00:04:23;;;;;;;1.00;1.00;;;19.20;77.40;18.40;96829.00;;;;5060164;28;20302;-78
2023/08/10 00:06:52;;;;;;;1.30;1.20;;;19.20;77.70;18.40;96825.00;;;;5070349;28;20283;-77
2023/08/10 00:09:19;;;;;;;1.20;1.20;;;19.20;77.90;18.40;96818.00;;;;5069425;28;20207;-77
2023/08/10 00:11:47;;;;;;;1.40;1.30;;;19.20;78.00;18.40;96821.00;;;;5057922;28;20193;-77
2023/08/10 00:14:14;;;;;;;1.07;1.07;;;19.20;78.30;18.40;96822.00;;;;5060886;28;20212;-77
2023/08/10 00:16:41;;;;;;;1.20;1.10;;;19.10;78.30;18.40;96810.00;;;;5075836;28;20773;-78
2023/08/10 00:19:09;;;;;;;1.50;1.40;;;19.20;78.50;18.40;96810.00;;;;5073438;28;20602;-78
2023/08/10 00:21:36;;;;;;;0.90;0.90;;;19.20;78.50;18.40;96814.00;;;;5072574;28;20203;-78
2023/08/10 00:24:06;;;;;;;1.20;1.10;;;19.20;78.40;18.40;96806.00;;;;5071015;28;20239;-77
2023/08/10 00:26:34;;;;;;;1.70;1.20;;;19.20;78.40;18.40;96808.00;;;;5072991;28;20806;-77
2023/08/10 00:29:01;;;;;;;1.70;1.20;;;19.20;78.20;18.40;96809.00;;;;5055543;28;20227;-77
2023/08/10 00:31:28;;;;;;;1.17;1.10;;;19.20;78.00;18.40;96817.00;;;;5053517;28;20204;-77
2023/08/10 00:33:55;;;;;;;1.30;1.20;;;19.20;78.10;18.40;96816.00;;;;5066302;28;20220;-78
2023/08/10 00:36:23;;;;;;;1.30;1.20;;;19.10;78.00;18.30;96812.00;;;;5072830;28;20208;-78
2023/08/10 00:38:50;;;;;;;1.00;1.00;;;19.20;77.80;18.30;96815.00;;;;5074306;28;20204;-76
2023/08/10 00:41:18;;;;;;;1.10;1.10;;;19.20;77.50;18.30;96814.00;;;;5067818;28;20228;-78
2023/08/10 00:43:46;;;;;;;1.03;1.00;;;19.10;77.40;18.30;96816.00;;;;5074389;28;20645;-77
2023/08/10 00:46:14;;;;;;;1.30;1.20;;;19.10;77.40;18.30;96810.00;;;;5073015;28;20196;-77
2023/08/10 00:48:42;;;;;;;1.70;1.23;;;19.10;77.60;18.30;96816.00;;;;5072826;28;20196;-78
2023/08/10 00:51:09;;;;;;;2.47;1.47;;;19.10;77.80;18.20;96816.00;;;;5053153;28;20679;-77
2023/08/10 00:53:38;;;;;;;1.47;1.20;;;19.10;77.90;18.20;96821.00;;;;5062723;28;20296;-78
2023/08/10 00:56:11;;;;;;;1.50;1.40;;;19.00;77.60;18.20;96821.00;;;;5060507;28;20589;-77
2023/08/10 00:58:42;;;;;;;1.17;1.17;;;19.00;77.50;18.20;96817.00;;;;5071958;28;20245;-77
2023/08/10 01:01:09;;;;;;;1.00;1.00;;;19.00;77.90;18.20;96822.00;;;;5078160;28;20230;-78
2023/08/10 01:03:37;;;;;;;1.20;1.20;;;19.00;78.00;18.20;96823.00;;;;5076957;28;20202;-77
2023/08/10 01:06:15;;;;;;;1.10;1.10;;;19.00;78.10;18.20;96826.00;;;;5070992;28;20288;-78
2023/08/10 01:08:55;;;;;;;1.80;1.03;;;19.00;78.00;18.20;96830.00;;;;5078210;28;20679;-78
2023/08/10 01:11:39;;;;;;;1.07;1.07;;;19.00;77.80;18.20;96815.00;;;;5073136;28;20683;-78
2023/08/10 01:14:21;;;;;;;1.80;1.10;;;19.00;77.90;18.20;96814.00;;;;5071921;28;20231;-77
2023/08/10 01:16:52;;;;;;;0.97;0.97;;;19.00;78.10;18.20;96814.00;;;;5062682;28;20560;-78
2023/08/10 01:19:32;;;;;;;1.23;1.17;;;19.00;78.10;18.20;96810.00;;;;5064154;28;20705;-78
2023/08/10 01:22:12;;;;;;;1.40;1.00;;;19.00;78.30;18.10;96815.00;;;;5062204;28;20200;-77
2023/08/10 01:24:44;;;;;;;2.30;1.17;;;19.00;78.20;18.20;96825.00;;;;5067601;28;20216;-78
2023/08/10 01:27:14;;;;;;;3.70;1.50;;;19.00;78.20;18.20;96823.00;;;;5058520;28;20204;-77
2023/08/10 01:29:42;;;;;;;2.50;1.40;;;19.00;78.20;18.20;96830.00;;;;5056693;28;20280;-78
2023/08/10 01:32:14;;;;;;;1.20;1.20;;;19.00;78.20;18.20;96825.00;;;;5073561;28;20232;-78
2023/08/10 01:34:42;;;;;;;1.50;1.40;;;19.00;78.30;18.10;96827.00;;;;5072103;28;20643;-78
2023/08/10 01:37:09;;;;;;;1.20;1.20;;;19.00;78.20;18.10;96827.00;;;;5073236;28;20208;-77
2023/08/10 01:39:36;;;;;;;1.87;1.57;;;19.00;78.20;18.10;96830.00;;;;5072080;28;20224;-78
2023/08/10 01:42:04;;;;;;;1.20;1.20;;;19.00;78.20;18.10;96835.00;;;;5072396;28;20200;-78
2023/08/10 01:44:32;;;;;;;1.20;1.10;;;19.00;78.30;18.10;96834.00;;;;5072144;28;20302;-78
2023/08/10 01:47:06;;;;;;;1.40;1.30;;;19.00;78.30;18.10;96827.00;;;;5048005;28;20200;-78
2023/08/10 01:49:37;;;;;;;1.30;1.20;;;19.00;78.40;18.10;96835.00;;;;5073383;28;20202;-77
2023/08/10 01:52:10;;;;;;;1.50;1.40;;;19.00;78.50;18.10;96840.00;;;;5072043;28;20275;-78
2023/08/10 01:54:38;;;;;;;1.47;1.33;;;19.00;78.60;18.10;96833.00;;;;5072322;28;20262;-78
2023/08/10 01:57:07;;;;;;;1.33;1.23;;;19.00;78.50;18.10;96837.00;;;;5072555;28;20261;-78
2023/08/10 01:59:36;;;;;;;1.27;1.10;;;19.00;78.60;18.10;96843.00;;;;5071596;28;20326;-77
2023/08/10 02:02:03;;;;;;;1.47;1.40;;;19.00;78.60;18.20;96843.00;;;;5064443;28;20261;-78
2023/08/10 02:04:30;;;;;;;1.73;1.43;;;19.00;78.60;18.20;96839.00;;;;5063707;28;20220;-78
2023/08/10 02:06:58;;;;;;;1.40;1.30;;;19.00;78.80;18.20;96835.00;;;;5072352;28;20210;-78
2023/08/10 02:09:25;;;;;;;1.20;1.20;;;19.00;78.60;18.20;96834.00;;;;5073250;28;20231;-78
2023/08/10 02:11:52;;;;;;;1.10;1.00;;;18.90;78.50;18.20;96838.00;;;;5050805;28;20207;-78
2023/08/10 02:14:20;;;;;;;1.63;1.20;;;18.90;78.60;18.20;96845.00;;;;5058723;28;20297;-78
2023/08/10 02:16:48;;;;;;;1.60;1.30;;;19.00;78.70;18.20;96838.00;;;;5069079;28;20192;-77
2023/08/10 02:19:16;;;;;;;1.20;1.20;;;19.00;78.60;18.20;96834.00;;;;5068811;28;20196;-77
2023/08/10 02:21:43;;;;;;;1.43;1.33;;;19.00;78.50;18.20;96836.00;;;;5068318;28;20275;-78
2023/08/10 02:24:10;;;;;;;1.63;1.50;;;19.00;79.20;18.20;96842.00;;;;5055585;28;20216;-77
2023/08/10 02:26:37;;;;;;;1.63;1.53;;;19.00;78.50;18.20;96841.00;;;;5071001;28;20657;-77
2023/08/10 02:29:05;;;;;;;1.70;1.60;;;19.00;78.70;18.20;96842.00;;;;5070188;28;20275;-77
2023/08/10 02:31:33;;;;;;;2.17;1.33;;;19.00;78.80;18.20;96835.00;;;;5069231;28;20196;-76
2023/08/10 02:34:03;;;;;;;1.70;1.60;;;19.00;78.80;18.30;96841.00;;;;5072357;28;20216;-77
2023/08/10 02:36:30;;;;;;;1.53;1.43;;;19.00;78.90;18.30;96840.00;;;;5071089;28;20574;-77
2023/08/10 02:38:58;;;;;;;2.03;1.50;;;19.00;78.90;18.30;96843.00;;;;5064005;28;20211;-77
2023/08/10 02:41:25;;;;;;;1.33;1.30;;;19.00;78.80;18.30;96853.00;;;;5071131;28;20775;-78
2023/08/10 02:43:52;;;;;;;1.40;1.30;;;19.10;78.80;18.30;96853.00;;;;5063638;28;20232;-77
2023/08/10 02:46:19;;;;;;;2.30;1.70;;;19.10;78.80;18.30;96852.00;;;;5063757;28;20193;-77
2023/08/10 02:48:46;;;;;;;1.90;1.20;;;19.10;78.80;18.30;96856.00;;;;5075722;28;20285;-77
2023/08/10 02:51:15;;;;;;;1.53;1.43;;;19.10;78.90;18.30;96852.00;;;;5063415;28;20201;-77
2023/08/10 02:53:45;;;;;;;1.67;1.37;;;19.10;78.80;18.30;96856.00;;;;5071005;28;20204;-77
2023/08/10 02:56:12;;;;;;;1.40;1.30;;;19.10;78.60;18.20;96849.00;;;;5070537;28;20685;-78
2023/08/10 02:58:39;;;;;;;1.33;1.30;;;19.10;78.40;18.20;96848.00;;;;5069113;28;20192;-77
2023/08/10 03:01:07;;;;;;;1.53;1.43;;;19.00;78.00;18.20;96845.00;;;;5057551;28;20603;-78
2023/08/10 03:03:35;;;;;;;1.90;1.40;;;19.00;77.80;18.20;96855.00;;;;5070443;28;20195;-77
2023/08/10 03:06:02;;;;;;;1.47;1.37;;;19.00;77.70;18.20;96854.00;;;;5068877;28;20219;-77
2023/08/10 03:08:31;;;;;;;1.40;1.27;;;19.00;77.60;18.10;96849.00;;;;5068735;28;20740;-77
2023/08/10 03:10:58;;;;;;;1.47;1.37;;;18.90;77.50;18.10;96849.00;;;;5070363;28;20219;-77
2023/08/10 03:13:26;;;;;;;1.20;1.20;;;19.00;77.50;18.10;96851.00;;;;5069166;28;20204;-82
2023/08/10 03:15:56;;;;;;;1.40;1.30;;;18.90;77.40;18.00;96852.00;;;;5048247;28;20243;-77
2023/08/10 03:18:23;;;;;;;1.50;1.40;;;18.90;77.30;18.00;96853.00;;;;5057385;28;20196;-77
2023/08/10 03:20:50;;;;;;;1.10;1.10;;;18.90;77.30;18.00;96857.00;;;;5062552;28;20306;-77
2023/08/10 03:23:17;;;;;;;1.50;1.40;;;18.80;77.20;17.90;96860.00;;;;5072909;28;20203;-77
2023/08/10 03:25:46;;;;;;;1.30;1.23;;;18.80;76.90;17.90;96856.00;;;;5059771;28;20697;-78
2023/08/10 03:28:13;;;;;;;1.60;1.50;;;18.80;76.60;17.90;96868.00;;;;5057427;28;20206;-77
2023/08/10 03:30:41;;;;;;;1.30;1.20;;;18.80;76.60;17.80;96862.00;;;;5069722;28;20210;-77
2023/08/10 03:33:08;;;;;;;1.20;1.20;;;18.70;76.70;17.80;96865.00;;;;5069170;28;20214;-77
2023/08/10 03:35:35;;;;;;;1.10;1.10;;;18.70;76.70;17.80;96869.00;;;;5053311;28;20712;-77
2023/08/10 03:38:03;;;;;;;1.13;1.13;;;18.70;76.70;17.70;96867.00;;;;5070750;28;20668;-78
2023/08/10 03:40:30;;;;;;;1.13;1.13;;;18.60;76.50;17.70;96868.00;;;;5045034;28;20708;-76
2023/08/10 03:42:59;;;;;;;1.60;1.50;;;18.60;76.30;17.60;96872.00;;;;5074748;28;20752;-77
2023/08/10 03:45:26;;;;;;;1.40;1.30;;;18.60;76.20;17.60;96870.00;;;;5075066;28;20604;-78
2023/08/10 03:47:54;;;;;;;1.27;1.27;;;18.50;76.20;17.50;96871.00;;;;5062840;28;20222;-78
2023/08/10 03:50:21;;;;;;;2.10;1.50;;;18.50;76.20;17.50;96872.00;;;;5075413;28;20200;-77
2023/08/10 03:52:48;;;;;;;1.30;1.20;;;18.40;76.10;17.40;96875.00;;;;5073989;28;20192;-77
2023/08/10 03:55:16;;;;;;;1.13;1.13;;;18.40;76.10;17.40;96873.00;;;;5074621;28;20584;-78
2023/08/10 03:57:44;;;;;;;2.17;1.60;;;18.30;76.10;17.30;96870.00;;;;5057124;28;20196;-77
2023/08/10 04:00:16;;;;;;;1.33;1.23;;;18.30;76.10;17.30;96871.00;;;;5073198;28;20215;-76
2023/08/10 04:02:43;;;;;;;2.30;1.50;;;18.30;76.20;17.30;96876.00;;;;5053839;28;20696;-78
2023/08/10 04:05:11;;;;;;;1.50;1.40;;;18.20;76.20;17.20;96871.00;;;;5061701;28;20251;-78
2023/08/10 04:07:39;;;;;;;1.60;1.50;;;18.20;76.30;17.20;96872.00;;;;5053715;28;20211;-77
2023/08/10 04:10:10;;;;;;;2.23;1.60;;;18.10;76.30;17.20;96874.00;;;;5066794;28;20200;-77
2023/08/10 04:12:38;;;;;;;1.27;1.17;;;18.10;76.20;17.10;96873.00;;;;5062378;28;20208;-77
2023/08/10 04:15:08;;;;;;;1.80;1.20;;;18.10;76.10;17.10;96881.00;;;;5073598;28;20746;-77
2023/08/10 04:17:38;;;;;;;1.80;1.47;;;18.00;76.00;17.00;96878.00;;;;5073721;28;20589;-77
2023/08/10 04:20:09;;;;;;;1.53;1.43;;;18.00;76.00;17.00;96884.00;;;;5070634;28;20567;-77
2023/08/10 04:22:36;;;;;;;1.53;1.40;;;18.00;75.80;17.00;96887.00;;;;5069623;28;20227;-77
2023/08/10 04:25:06;;;;;;;1.17;1.13;;;17.90;75.50;16.90;96889.00;;;;5058744;28;20220;-78
2023/08/10 04:27:34;;;;;;;1.20;1.20;;;17.90;75.50;16.90;96896.00;;;;5056030;28;20197;-78
2023/08/10 04:30:03;;;;;;;1.60;1.50;;;17.80;75.50;16.80;96887.00;;;;5067711;28;20292;-78
2023/08/10 04:32:30;;;;;;;1.60;1.50;;;17.80;75.80;16.80;96898.00;;;;5055804;28;20196;-77
2023/08/10 04:34:59;;;;;;;1.57;1.47;;;17.80;76.00;16.80;96892.00;;;;5068900;28;20582;-78
2023/08/10 04:37:26;;;;;;;1.90;1.70;;;17.70;76.20;16.70;96893.00;;;;5055668;28;20287;-78
2023/08/10 04:39:54;;;;;;;4.37;2.17;;;17.70;76.40;16.70;96900.00;;;;5061576;28;20205;-77
2023/08/10 04:42:21;;;;;;;2.50;1.70;;;17.70;76.60;16.70;96897.00;;;;5065573;28;20587;-77
2023/08/10 04:44:52;;;;;;;18.17;2.30;;;17.70;76.70;16.70;96896.00;;;;5065486;28;20215;-78
2023/08/10 04:47:20;;;;;;;3.00;2.10;;;17.60;77.00;16.70;96908.00;;;;5066691;28;20661;-78
2023/08/10 04:49:47;;;;;;;4.87;1.83;;;17.60;77.30;16.70;96903.00;;;;5035983;28;20189;-78
2023/08/10 04:52:16;;;;;;;2.43;1.67;;;17.60;77.40;16.70;96896.00;;;;5064241;28;20203;-78
2023/08/10 04:54:44;;;;;;;7.60;1.77;;;17.60;77.60;16.70;96895.00;;;;5071059;28;20740;-77
2023/08/10 04:57:12;;;;;;;4.13;1.70;;;17.60;77.60;16.70;96902.00;;;;5071543;28;20203;-78
2023/08/10 04:59:39;;;;;;;4.30;1.93;;;17.60;78.40;16.70;96907.00;;;;5063032;28;20200;-78
2023/08/10 05:02:06;;;;;;;1.60;1.50;;;17.60;77.80;16.70;96906.00;;;;5068248;28;20315;-78
2023/08/10 05:04:33;;;;;;;1.70;1.60;;;17.60;77.90;16.70;96908.00;;;;5053729;28;20252;-77
2023/08/10 05:07:01;;;;;;;1.83;1.73;;;17.60;77.90;16.80;96909.00;;;;5058433;28;20209;-77
2023/08/10 05:09:29;;;;;;;1.80;1.70;;;17.60;78.00;16.80;96909.00;;;;5067273;28;20200;-78
2023/08/10 05:11:57;;;;;;;1.77;1.67;;;17.60;78.20;16.80;96907.00;;;;5061697;28;20224;-81
2023/08/10 05:14:24;;;;;;;1.70;1.60;;;17.70;78.40;16.80;96909.00;;;;5057011;28;20223;-80
2023/08/10 05:16:52;;;;;;;2.03;1.83;;;17.70;78.60;16.90;96912.00;;;;5058192;28;20232;-81
2023/08/10 05:19:19;;;;;;;1.80;1.70;;;17.70;78.80;16.90;96918.00;;;;5076637;28;20689;-81
2023/08/10 05:21:46;;;;;;;1.83;1.60;;;17.70;78.90;17.00;96916.00;;;;5079806;28;20294;-81
2023/08/10 05:24:13;;;;;;;1.70;1.60;;;17.80;79.00;17.00;96918.00;;;;5081337;28;20743;-81
2023/08/10 05:26:42;;;;;;;2.10;1.60;;;17.80;79.00;17.00;96915.00;;;;5081046;28;20231;-80
2023/08/10 05:29:10;;;;;;;1.87;1.60;;;17.90;79.20;17.10;96909.00;;;;5073229;28;20584;-80
2023/08/10 05:31:37;;;;;;;1.80;1.70;;;17.90;79.10;17.10;96911.00;;;;5079452;28;20699;-81
2023/08/10 05:34:05;;;;;;;1.43;1.33;;;18.00;79.10;17.10;96918.00;;;;5080536;28;20220;-81
2023/08/10 05:36:32;;;;;;;1.80;1.70;;;18.00;79.00;17.20;96926.00;;;;5080660;28;20278;-82
2023/08/10 05:38:59;;;;;;;1.80;1.60;;;18.10;78.90;17.20;96927.00;;;;5061743;28;20209;-81
2023/08/10 05:41:27;;;;;;;2.20;2.10;;;18.10;78.70;17.20;96930.00;;;;5079702;28;20306;-81
2023/08/10 05:43:55;;;;;;;1.50;1.40;;;18.10;78.70;17.20;96936.00;;;;5073855;28;20227;-82
2023/08/10 05:46:23;;;;;;;1.93;1.73;;;18.10;79.40;17.30;96936.00;;;;5073672;28;20223;-78
2023/08/10 05:48:50;;;;;;;2.10;2.00;;;18.20;78.60;17.30;96934.00;;;;5061845;28;20208;-81
2023/08/10 05:51:17;;;;;;;2.40;1.60;;;18.20;78.60;17.30;96940.00;;;;5095894;28;20207;-81
2023/08/10 05:53:47;;;;;;;1.80;1.70;;;18.20;78.70;17.30;96943.00;;;;5074096;28;20203;-81
2023/08/10 05:56:14;;;;;;;2.00;1.90;;;18.30;78.80;17.40;96942.00;;;;5059627;28;20193;-81
2023/08/10 05:58:42;;;;;;;2.40;1.90;;;18.30;78.80;17.40;96948.00;;;;5084124;28;20199;-80
2023/08/10 06:01:11;;;;;;;2.40;2.20;;;18.30;78.80;17.40;96947.00;;;;5081943;28;20940;-79
2023/08/10 06:03:38;;;;;;;1.67;1.57;;;18.30;78.90;17.50;96946.00;;;;5082437;28;20228;-82
2023/08/10 06:06:07;;;;;;;1.60;1.50;;;18.40;79.00;17.50;96936.00;;;;5070900;28;20209;-82
2023/08/10 06:08:35;;;;;;;2.10;1.90;;;18.40;79.10;17.60;96942.00;;;;5076714;28;20197;-81
2023/08/10 06:11:03;;;;;;;2.27;1.70;;;18.40;79.10;17.60;96944.00;;;;5070211;28;20204;-79
2023/08/10 06:13:32;;;;;;;2.03;1.70;;;18.40;79.10;17.60;96935.00;;;;5084348;28;20200;-82
2023/08/10 06:15:59;;;;;;;1.80;1.70;;;18.40;79.10;17.60;96944.00;;;;5088789;28;20630;-82
2023/08/10 06:18:28;;;;;;;1.60;1.50;;;18.50;79.10;17.70;96947.00;;;;5082622;28;20279;-81
2023/08/10 06:20:56;;;;;;;2.00;1.90;;;18.50;79.20;17.70;96945.00;;;;5050456;28;20220;-82
2023/08/10 06:23:23;;;;;;;1.83;1.73;;;18.50;79.20;17.80;96944.00;;;;5078364;28;20216;-83
2023/08/10 06:25:50;;;;;;;1.63;1.53;;;18.60;79.30;17.80;96938.00;;;;5033467;28;20267;-82
2023/08/10 06:28:18;;;;;;;1.50;1.40;;;18.60;79.10;17.90;96948.00;;;;5077100;28;20716;-82
2023/08/10 06:30:45;;;;;;;2.13;1.50;;;18.60;79.00;17.90;96952.00;;;;5068032;28;20188;-80
2023/08/10 06:33:12;;;;;;;1.93;1.67;;;18.70;79.00;17.90;96955.00;;;;5069453;28;20227;-79
2023/08/10 06:35:41;;;;;;;1.50;1.40;;;18.70;79.00;18.00;96953.00;;;;5061643;28;20217;-81
2023/08/10 06:38:09;;;;;;;1.83;1.73;;;18.70;79.10;18.00;96961.00;;;;5067019;28;20220;-80
2023/08/10 06:40:37;;;;;;;1.40;1.30;;;18.80;79.20;18.10;96956.00;;;;5074672;28;20192;-80
2023/08/10 06:43:04;;;;;;;1.00;1.00;;;18.80;79.00;18.10;96956.00;;;;5075687;28;20275;-80
2023/08/10 06:45:32;;;;;;;1.30;1.20;;;18.80;78.70;18.20;96959.00;;;;5060322;28;20224;-81
2023/08/10 06:48:00;;;;;;;1.30;1.23;;;18.90;78.60;18.20;96963.00;;;;5072245;28;20200;-81
2023/08/10 06:50:27;;;;;;;0.97;0.97;;;18.90;78.50;18.20;96963.00;;;;5077040;28;20207;-83
2023/08/10 06:52:58;;;;;;;1.40;1.20;;;18.90;78.40;18.20;96963.00;;;;5079173;28;20239;-79
2023/08/10 06:55:27;;;;;;;1.47;1.37;;;19.00;78.50;18.30;96965.00;;;;5062030;28;20220;-80
2023/08/10 06:57:54;;;;;;;1.37;1.30;;;19.00;78.50;18.30;96963.00;;;;5061594;28;20206;-81
2023/08/10 07:00:24;;;;;;;1.53;1.13;;;19.10;78.50;18.40;96973.00;;;;5079138;28;20280;-80
2023/08/10 07:02:53;;;;;;;1.27;1.13;;;19.10;78.40;18.40;96970.00;;;;5076979;28;20246;-80
2023/08/10 07:05:21;;;;;;;1.20;1.10;;;19.10;78.00;18.50;96971.00;;;;5077143;28;20237;-80
2023/08/10 07:07:49;;;;;;;2.03;1.37;;;19.20;77.70;18.50;96969.00;;;;5067329;28;20200;-81
2023/08/10 07:10:18;;;;;;;0.80;0.80;;;19.20;77.80;18.50;96974.00;;;;5070671;28;20204;-81
2023/08/10 07:12:46;;;;;;;1.23;1.10;;;19.20;77.80;18.60;96979.00;;;;5077760;28;20200;-81
2023/08/10 07:15:13;;;;;;;1.37;1.20;;;19.30;78.30;18.60;96972.00;;;;5078637;28;20312;-81
2023/08/10 07:17:40;;;;;;;1.30;1.20;;;19.30;77.80;18.70;96974.00;;;;5075932;28;20261;-81
2023/08/10 07:20:09;;;;;;;1.13;1.03;;;19.40;78.00;18.80;96975.00;;;;5064189;28;20204;-80
2023/08/10 07:22:37;;;;;;;1.53;0.93;;;19.40;77.80;18.90;96976.00;;;;5072539;28;20232;-81
2023/08/10 07:25:06;;;;;;;1.20;1.03;;;19.50;77.70;19.00;96973.00;;;;5075619;28;20681;-81
2023/08/10 07:27:38;;;;;;;1.00;1.00;;;19.60;77.90;19.00;96975.00;;;;5091000;28;20193;-83
2023/08/10 07:30:07;;;;;;;1.20;1.17;;;19.60;77.90;19.10;96981.00;;;;5078282;28;20207;-81
2023/08/10 07:32:35;;;;;;;0.83;0.83;;;19.70;77.60;19.20;96991.00;;;;5074457;28;20206;-81
2023/08/10 07:35:02;;;;;;;1.10;0.90;;;19.80;77.40;19.30;96986.00;;;;5074300;28;20256;-81
2023/08/10 07:37:31;;;;;;;0.90;0.90;;;19.90;77.30;19.40;96981.00;;;;5080997;28;20218;-80
2023/08/10 07:39:58;;;;;;;1.40;1.23;;;20.00;77.50;19.50;96992.00;;;;5079171;28;20194;-79
2023/08/10 07:42:26;;;;;;;0.90;0.90;;;20.10;77.50;19.60;96983.00;;;;5080301;28;20312;-80
2023/08/10 07:44:55;;;;;;;0.80;0.80;;;20.20;77.30;19.70;96986.00;;;;5059324;28;20231;-80
2023/08/10 07:47:22;;;;;;;1.10;1.00;;;20.30;76.90;19.80;96983.00;;;;5061061;28;20645;-80
2023/08/10 07:49:50;;;;;;;0.90;0.90;;;20.30;76.80;19.90;96996.00;;;;5066071;28;20207;-80
2023/08/10 07:52:17;;;;;;;1.50;1.40;;;20.50;76.90;20.00;97001.00;;;;5081275;28;20202;-82
2023/08/10 07:54:45;;;;;;;0.90;0.90;;;20.60;77.10;20.10;97003.00;;;;5061138;28;20226;-81
2023/08/10 07:57:13;;;;;;;1.10;1.00;;;20.70;77.30;20.20;97005.00;;;;5076688;28;20200;-82
2023/08/10 07:59:40;;;;;;;0.90;0.90;;;20.80;77.20;20.30;97005.00;;;;5065244;28;20200;-81
2023/08/10 08:02:09;;;;;;;0.80;0.80;;;20.90;76.80;20.40;97005.00;;;;5081328;28;20238;-82
2023/08/10 08:04:37;;;;;;;0.80;0.60;;;21.00;75.90;20.50;97007.00;;;;5082457;28;20223;-81
2023/08/10 08:07:04;;;;;;;0.73;0.73;;;21.10;74.50;20.60;97009.00;;;;5081140;28;20203;-81
2023/08/10 08:09:32;;;;;;;0.67;0.67;;;21.20;74.20;20.70;97008.00;;;;5061762;28;20225;-81
2023/08/10 08:12:00;;;;;;;1.03;0.93;;;21.30;74.20;20.80;97016.00;;;;5080488;28;20203;-81
2023/08/10 08:14:27;;;;;;;0.50;0.50;;;21.40;74.90;20.90;97018.00;;;;5081014;28;20422;-81
2023/08/10 08:16:54;;;;;;;0.70;0.60;;;21.50;73.10;21.00;97022.00;;;;5072929;28;20206;-81
2023/08/10 08:19:23;;;;;;;0.70;0.57;;;21.60;72.40;21.10;97020.00;;;;5083193;28;20256;-81
2023/08/10 08:21:51;;;;;;;0.70;0.70;;;21.70;71.40;21.30;97021.00;;;;5083385;28;20306;-81
2023/08/10 08:24:18;;;;;;;0.97;0.53;;;21.80;71.50;21.40;97021.00;;;;5083238;28;20295;-81
2023/08/10 08:26:45;;;;;;;0.70;0.70;;;21.90;70.60;21.50;97015.00;;;;5084611;28;20266;-81
2023/08/10 08:29:13;;;;;;;0.87;0.87;;;22.00;70.30;21.60;97009.00;;;;5076112;28;20196;-80
2023/08/10 08:31:41;;;;;;;1.67;0.80;;;22.10;70.70;21.70;97017.00;;;;5060584;28;20602;-80
2023/08/10 08:34:08;;;;;;;0.60;0.60;;;22.20;70.00;21.80;97013.00;;;;5068451;28;20319;-81
2023/08/10 08:36:37;;;;;;;0.70;0.70;;;22.30;70.00;21.90;97010.00;;;;5079235;28;20251;-82
2023/08/10 08:39:05;;;;;;;0.43;0.43;;;22.40;68.50;21.90;97015.00;;;;5074388;28;20301;-81
2023/08/10 08:41:39;;;;;;;0.67;0.67;;;22.50;67.50;22.00;97013.00;;;;5069090;28;20600;-80
2023/08/10 08:44:08;;;;;;;0.87;0.40;;;22.60;67.00;22.20;97026.00;;;;5075176;28;20226;-78
2023/08/10 08:46:40;;;;;;;1.97;0.60;;;22.70;66.70;22.20;97028.00;;;;5062786;28;20245;-80
2023/08/10 08:49:08;;;;;;;0.80;0.70;;;22.70;66.20;22.40;97017.00;;;;5063737;28;20227;-79
2023/08/10 08:51:38;;;;;;;0.97;0.70;;;22.80;66.30;22.50;97027.00;;;;5085622;28;20226;-82
2023/08/10 08:54:06;;;;;;;0.90;0.70;;;22.90;65.90;22.60;97019.00;;;;5087895;28;20250;-80
2023/08/10 08:56:34;;;;;;;0.57;0.57;;;23.00;65.20;22.70;97022.00;;;;5088972;28;20213;-80
2023/08/10 08:59:01;;;;;;;0.73;0.73;;;23.20;64.60;22.90;97025.00;;;;5081298;28;20629;-80
2023/08/10 09:01:30;;;;;;;0.70;0.70;;;23.30;63.50;23.00;97027.00;;;;5075279;28;20197;-81
2023/08/10 09:03:58;;;;;;;0.77;0.73;;;23.40;63.20;23.10;97020.00;;;;5074701;28;20218;-80
2023/08/10 09:06:25;;;;;;;0.67;0.67;;;23.50;62.20;23.20;97027.00;;;;5077710;28;20196;-79
2023/08/10 09:08:54;;;;;;;1.47;0.70;;;23.60;61.50;23.30;97035.00;;;;5054969;28;20214;-81
2023/08/10 09:11:21;;;;;;;0.70;0.70;;;23.70;61.60;23.40;97030.00;;;;5080200;28;20206;-82
2023/08/10 09:14:08;;;;;;;0.80;0.80;;;23.80;61.20;23.50;97024.00;;;;5079714;28;20231;-81
2023/08/10 09:16:37;;;;;;;0.70;0.60;;;23.90;61.00;23.60;97032.00;;;;5069052;28;20231;-81
2023/08/10 09:19:05;;;;;;;0.30;0.30;;;24.00;62.10;23.70;97040.00;;;;5069425;28;20207;-81
2023/08/10 09:21:33;;;;;;;1.50;0.60;;;24.10;61.10;23.90;97035.00;;;;5072269;28;20200;-81
2023/08/10 09:24:02;;;;;;;0.70;0.70;;;24.30;60.70;24.00;97030.00;;;;5065017;28;20231;-78
2023/08/10 09:26:29;;;;;;;0.70;0.70;;;24.40;59.10;24.10;97034.00;;;;5072157;28;20199;-79
2023/08/10 09:28:57;;;;;;;0.60;0.60;;;24.50;59.90;24.30;97030.00;;;;5070040;28;20287;-78
2023/08/10 09:31:27;;;;;;;0.50;0.50;;;24.70;60.60;24.40;97030.00;;;;5072439;28;20689;-79
2023/08/10 09:33:55;;;;;;;0.60;0.60;;;24.80;60.80;24.50;97027.00;;;;5060704;28;20311;-79
2023/08/10 09:36:25;;;;;;;0.60;0.60;;;24.90;60.00;24.60;97025.00;;;;5071179;28;20235;-79
2023/08/10 09:38:54;;;;;;;0.70;0.70;;;25.10;59.20;24.70;97024.00;;;;5069409;28;20201;-78
2023/08/10 09:41:25;;;;;;;0.60;0.60;;;25.20;58.90;24.80;97019.00;;;;5072375;28;20199;-78
2023/08/10 09:43:52;;;;;;;0.50;0.50;;;25.30;58.30;24.90;97019.00;;;;5064776;28;20226;-79
2023/08/10 09:46:19;;;;;;;0.50;0.50;;;25.40;58.90;25.10;97021.00;;;;5073499;28;20303;-80
2023/08/10 09:48:49;;;;;;;0.70;0.70;;;25.60;58.90;25.20;97026.00;;;;5073752;28;20192;-80
2023/08/10 09:51:16;;;;;;;0.57;0.40;;;25.60;58.10;25.30;97026.00;;;;5069121;28;20228;-78
2023/08/10 09:53:44;;;;;;;0.60;0.53;;;25.80;57.70;25.40;97026.00;;;;5062172;28;20217;-78
2023/08/10 09:56:11;;;;;;;0.40;0.40;;;25.90;57.90;25.50;97025.00;;;;5063696;28;20284;-79
2023/08/10 09:58:42;;;;;;;0.70;0.60;;;26.00;56.50;25.60;97033.00;;;;5063551;28;20208;-78
2023/08/10 10:01:10;;;;;;;0.57;0.50;;;26.10;54.50;25.70;97029.00;;;;5074677;28;20231;-78
2023/08/10 10:03:37;;;;;;;0.60;0.60;;;26.20;54.00;25.80;97027.00;;;;5058282;28;20227;-78
2023/08/10 10:06:05;;;;;;;0.50;0.50;;;26.30;53.70;25.80;97029.00;;;;5062369;28;20291;-79
2023/08/10 10:08:39;;;;;;;0.67;0.63;;;26.30;53.50;25.90;97032.00;;;;5046641;28;20228;-78
2023/08/10 10:11:13;;;;;;;1.27;0.60;;;26.40;52.70;26.00;97028.00;;;;5048667;28;20231;-79
2023/08/10 10:13:43;;;;;;;0.60;0.60;;;26.50;53.10;26.10;97032.00;;;;5074232;28;20204;-78
2023/08/10 10:16:12;;;;;;;0.50;0.50;;;26.60;53.70;26.20;97032.00;;;;5065804;28;20291;-79
2023/08/10 10:18:40;;;;;;;0.60;0.50;;;26.70;53.10;26.30;97026.00;;;;5051686;28;20205;-78
2023/08/10 10:21:08;;;;;;;0.50;0.50;;;26.80;53.50;26.40;97019.00;;;;5067468;28;20256;-78
2023/08/10 10:23:42;;;;;;;0.60;0.60;;;26.90;53.40;26.50;97028.00;;;;5062759;28;20319;-79
2023/08/10 10:26:10;;;;;;;0.53;0.50;;;27.00;52.50;26.60;97020.00;;;;5067343;28;20187;-79
2023/08/10 10:28:42;;;;;;;0.80;0.50;;;27.10;53.40;26.70;97018.00;;;;5063374;28;20589;-78
2023/08/10 10:31:12;;;;;;;0.57;0.53;;;27.20;52.70;26.70;97017.00;;;;5067959;28;20195;-79
2023/08/10 10:33:56;;;;;;;0.60;0.60;;;27.30;50.60;26.80;97022.00;;;;5066278;28;20203;-79
2023/08/10 10:36:23;;;;;;;0.50;0.50;;;27.40;50.30;26.80;97020.00;;;;5057042;28;20265;-79
2023/08/10 10:39:20;;;;;;;0.43;0.43;;;27.50;50.70;26.90;97015.00;;;;5054602;28;20283;-79
2023/08/10 10:41:50;;;;;;;0.45;0.45;;;27.60;50.10;26.90;97010.00;;;;5063045;28;20264;-78
2023/08/10 10:44:19;;;;;;;0.40;0.40;;;27.60;51.60;27.00;97009.00;;;;5067176;28;20228;-78
2023/08/10 10:46:47;;;;;;;0.60;0.50;;;27.60;51.10;27.10;97018.00;;;;5074435;28;20192;-78
2023/08/10 10:49:20;;;;;;;0.95;0.80;;;27.70;50.80;27.10;97015.00;;;;5073061;28;20724;-78
2023/08/10 10:51:54;;;;;;;1.85;0.73;;;27.70;49.40;27.20;97014.00;;;;5064824;28;20287;-79
2023/08/10 10:54:22;;;;;;;0.60;0.60;;;27.80;49.10;27.20;97012.00;;;;5062407;28;20253;-78
2023/08/10 10:56:50;;;;;;;1.52;0.63;;;27.80;50.50;27.30;97022.00;;;;5059103;28;20204;-78
2023/08/10 10:59:21;;;;;;;1.30;0.55;;;27.90;50.50;27.30;97016.00;;;;5067861;28;20227;-78
2023/08/10 11:01:49;;;;;;;1.05;0.70;;;27.90;49.90;27.30;97020.00;;;;5055841;28;20249;-78